Alma, Arkansas
Current Conditions -  °F | °C
As of 9:53 AM on Sunday 25 Jan 2015 (Local Time) from KFSM Reporting Station
Few Clouds Few Clouds  
Wind Chill: 55°   Ceiling: Unl
Heat Index: 55°   Visibility: 10mi
Dew Point: 35°   Wind: 17mph
Humidity: 47%   Direction: 280°W
Pressure: 29.82"   Gusts: NA
Location:  35.48°N, 94.22°W
Report Text: KFSM 251553Z 28015KT 10SM FEW075 13/02 A2982 RMK AO2 SLP097 T01280017
Loading
Personal Weather Stations






























Interactive Weather Map New forecast layout! Learn more

10-Day Weather Forecast

Advertisements
Track Severe Weather on mobile